sensor_id;sensor_type;location;lat;lon;timestamp;temperature;humidity
37868;DHT22;24011;48.880;9.190;2022-08-04T00:02:42;26.80;42.70
37868;DHT22;24011;48.880;9.190;2022-08-04T00:06:13;26.80;42.70
37868;DHT22;24011;48.880;9.190;2022-08-04T00:09:40;26.80;42.70
37868;DHT22;24011;48.880;9.190;2022-08-04T00:13:04;26.70;42.70
37868;DHT22;24011;48.880;9.190;2022-08-04T00:16:46;26.80;42.90
37868;DHT22;24011;48.880;9.190;2022-08-04T00:20:18;26.70;42.70
37868;DHT22;24011;48.880;9.190;2022-08-04T00:23:49;26.70;42.80
37868;DHT22;24011;48.880;9.190;2022-08-04T00:27:10;26.70;42.90
37868;DHT22;24011;48.880;9.190;2022-08-04T00:30:37;26.70;42.90
37868;DHT22;24011;48.880;9.190;2022-08-04T00:34:01;26.70;42.90
37868;DHT22;24011;48.880;9.190;2022-08-04T00:37:31;26.70;42.90
37868;DHT22;24011;48.880;9.190;2022-08-04T00:40:56;26.70;42.90
37868;DHT22;24011;48.880;9.190;2022-08-04T00:44:48;26.70;42.90
37868;DHT22;24011;48.880;9.190;2022-08-04T00:48:15;26.70;43.00
37868;DHT22;24011;48.880;9.190;2022-08-04T00:51:46;26.70;43.00
37868;DHT22;24011;48.880;9.190;2022-08-04T00:55:35;26.70;43.00
37868;DHT22;24011;48.880;9.190;2022-08-04T00:59:09;26.70;43.00
37868;DHT22;24011;48.880;9.190;2022-08-04T01:02:38;26.70;43.00
37868;DHT22;24011;48.880;9.190;2022-08-04T01:06:08;26.70;43.00
37868;DHT22;24011;48.880;9.190;2022-08-04T01:09:36;26.60;43.00
37868;DHT22;24011;48.880;9.190;2022-08-04T01:13:16;26.70;43.10
37868;DHT22;24011;48.880;9.190;2022-08-04T01:16:37;26.60;43.00
37868;DHT22;24011;48.880;9.190;2022-08-04T01:20:05;26.60;43.10
37868;DHT22;24011;48.880;9.190;2022-08-04T01:23:36;26.60;43.10
37868;DHT22;24011;48.880;9.190;2022-08-04T01:27:10;26.60;43.10
37868;DHT22;24011;48.880;9.190;2022-08-04T01:30:34;26.60;43.20
37868;DHT22;24011;48.880;9.190;2022-08-04T01:34:08;26.60;43.10
37868;DHT22;24011;48.880;9.190;2022-08-04T01:37:19;26.60;43.20
37868;DHT22;24011;48.880;9.190;2022-08-04T01:40:41;26.60;43.20
37868;DHT22;24011;48.880;9.190;2022-08-04T01:44:05;26.60;43.20
37868;DHT22;24011;48.880;9.190;2022-08-04T01:47:56;26.60;43.20
37868;DHT22;24011;48.880;9.190;2022-08-04T01:51:22;26.60;43.20
37868;DHT22;24011;48.880;9.190;2022-08-04T01:54:47;26.60;43.20
37868;DHT22;24011;48.880;9.190;2022-08-04T01:57:52;26.60;43.20
37868;DHT22;24011;48.880;9.190;2022-08-04T02:01:00;26.60;43.20
37868;DHT22;24011;48.880;9.190;2022-08-04T02:04:11;26.60;43.20
37868;DHT22;24011;48.880;9.190;2022-08-04T02:07:39;26.60;43.20
37868;DHT22;24011;48.880;9.190;2022-08-04T02:11:14;26.60;43.20
37868;DHT22;24011;48.880;9.190;2022-08-04T02:15:09;26.60;43.20
37868;DHT22;24011;48.880;9.190;2022-08-04T02:18:45;26.60;43.20
37868;DHT22;24011;48.880;9.190;2022-08-04T02:41:08;26.60;43.30
37868;DHT22;24011;48.880;9.190;2022-08-04T02:44:32;26.50;43.30
37868;DHT22;24011;48.880;9.190;2022-08-04T02:48:05;26.50;43.30
37868;DHT22;24011;48.880;9.190;2022-08-04T02:51:27;26.50;43.30
37868;DHT22;24011;48.880;9.190;2022-08-04T02:54:44;26.50;43.30
37868;DHT22;24011;48.880;9.190;2022-08-04T02:58:08;26.50;43.30
37868;DHT22;24011;48.880;9.190;2022-08-04T03:01:29;26.50;43.40
37868;DHT22;24011;48.880;9.190;2022-08-04T03:04:45;26.50;43.40
37868;DHT22;24011;48.880;9.190;2022-08-04T03:08:11;26.50;43.50
37868;DHT22;24011;48.880;9.190;2022-08-04T03:11:27;26.30;44.00
37868;DHT22;24011;48.880;9.190;2022-08-04T03:29:33;25.90;45.30
37868;DHT22;24011;48.880;9.190;2022-08-04T03:33:23;25.90;45.50
37868;DHT22;24011;48.880;9.190;2022-08-04T03:40:37;25.80;45.90
37868;DHT22;24011;48.880;9.190;2022-08-04T04:22:12;25.50;47.10
37868;DHT22;24011;48.880;9.190;2022-08-04T04:25:43;25.40;47.30
37868;DHT22;24011;48.880;9.190;2022-08-04T04:29:07;25.40;47.50
37868;DHT22;24011;48.880;9.190;2022-08-04T04:32:37;25.40;47.70
37868;DHT22;24011;48.880;9.190;2022-08-04T04:35:45;25.30;47.80
37868;DHT22;24011;48.880;9.190;2022-08-04T04:39:12;25.30;47.90
37868;DHT22;24011;48.880;9.190;2022-08-04T04:42:33;25.30;48.00
37868;DHT22;24011;48.880;9.190;2022-08-04T04:45:55;25.30;48.20
37868;DHT22;24011;48.880;9.190;2022-08-04T04:49:04;25.30;48.30
37868;DHT22;24011;48.880;9.190;2022-08-04T04:52:27;25.30;48.40
37868;DHT22;24011;48.880;9.190;2022-08-04T04:55:44;25.20;48.40
37868;DHT22;24011;48.880;9.190;2022-08-04T04:59:07;25.30;48.50
37868;DHT22;24011;48.880;9.190;2022-08-04T05:06:02;25.20;48.50
37868;DHT22;24011;48.880;9.190;2022-08-04T05:09:20;25.20;48.60
37868;DHT22;24011;48.880;9.190;2022-08-04T05:16:24;25.20;48.60
37868;DHT22;24011;48.880;9.190;2022-08-04T05:19:49;25.20;48.90
37868;DHT22;24011;48.880;9.190;2022-08-04T05:22:57;25.20;48.90
37868;DHT22;24011;48.880;9.190;2022-08-04T05:26:15;25.20;48.90
37868;DHT22;24011;48.880;9.190;2022-08-04T05:29:31;25.20;48.90
37868;DHT22;24011;48.880;9.190;2022-08-04T05:33:08;25.20;49.00
37868;DHT22;24011;48.880;9.190;2022-08-04T05:36:14;25.20;49.00
37868;DHT22;24011;48.880;9.190;2022-08-04T05:39:38;25.20;48.90
37868;DHT22;24011;48.880;9.190;2022-08-04T05:42:40;25.20;48.90
37868;DHT22;24011;48.880;9.190;2022-08-04T05:45:42;25.20;49.00
37868;DHT22;24011;48.880;9.190;2022-08-04T05:48:58;25.20;49.00
37868;DHT22;24011;48.880;9.190;2022-08-04T05:52:02;25.30;49.10
37868;DHT22;24011;48.880;9.190;2022-08-04T05:55:26;25.20;49.10
37868;DHT22;24011;48.880;9.190;2022-08-04T05:58:38;25.20;49.10
37868;DHT22;24011;48.880;9.190;2022-08-04T06:01:44;25.30;49.10
37868;DHT22;24011;48.880;9.190;2022-08-04T06:05:05;25.30;49.10
37868;DHT22;24011;48.880;9.190;2022-08-04T06:08:01;25.30;49.00
37868;DHT22;24011;48.880;9.190;2022-08-04T06:11:10;25.30;48.90
37868;DHT22;24011;48.880;9.190;2022-08-04T06:13:55;25.30;48.70
37868;DHT22;24011;48.880;9.190;2022-08-04T06:17:02;25.30;48.60
37868;DHT22;24011;48.880;9.190;2022-08-04T06:20:33;25.30;48.60
37868;DHT22;24011;48.880;9.190;2022-08-04T06:23:31;25.30;48.40
37868;DHT22;24011;48.880;9.190;2022-08-04T06:26:37;25.30;48.20
37868;DHT22;24011;48.880;9.190;2022-08-04T06:29:49;25.30;48.10
37868;DHT22;24011;48.880;9.190;2022-08-04T06:32:51;25.40;48.00
37868;DHT22;24011;48.880;9.190;2022-08-04T06:36:31;25.40;47.90
37868;DHT22;24011;48.880;9.190;2022-08-04T06:39:45;25.40;47.80
37868;DHT22;24011;48.880;9.190;2022-08-04T06:43:12;25.40;47.80
37868;DHT22;24011;48.880;9.190;2022-08-04T06:49:12;25.50;47.60
37868;DHT22;24011;48.880;9.190;2022-08-04T06:52:19;25.50;47.60
37868;DHT22;24011;48.880;9.190;2022-08-04T06:55:15;25.50;47.60
37868;DHT22;24011;48.880;9.190;2022-08-04T06:57:57;25.50;47.50
37868;DHT22;24011;48.880;9.190;2022-08-04T07:00:45;25.50;47.50
37868;DHT22;24011;48.880;9.190;2022-08-04T07:03:36;25.60;47.50
37868;DHT22;24011;48.880;9.190;2022-08-04T07:06:34;25.60;47.40
37868;DHT22;24011;48.880;9.190;2022-08-04T07:09:27;25.60;47.40
37868;DHT22;24011;48.880;9.190;2022-08-04T07:12:11;25.70;47.40
37868;DHT22;24011;48.880;9.190;2022-08-04T07:15:00;25.60;47.30
37868;DHT22;24011;48.880;9.190;2022-08-04T07:18:03;25.70;47.30
37868;DHT22;24011;48.880;9.190;2022-08-04T07:21:02;25.70;47.20
37868;DHT22;24011;48.880;9.190;2022-08-04T07:23:43;25.70;47.20
37868;DHT22;24011;48.880;9.190;2022-08-04T07:26:33;25.70;47.20
37868;DHT22;24011;48.880;9.190;2022-08-04T07:29:36;25.70;47.20
37868;DHT22;24011;48.880;9.190;2022-08-04T07:32:24;25.80;47.20
37868;DHT22;24011;48.880;9.190;2022-08-04T07:35:17;25.80;47.20
37868;DHT22;24011;48.880;9.190;2022-08-04T07:38:32;25.80;47.10
37868;DHT22;24011;48.880;9.190;2022-08-04T07:41:32;25.80;47.00
37868;DHT22;24011;48.880;9.190;2022-08-04T07:44:20;25.80;47.00
37868;DHT22;24011;48.880;9.190;2022-08-04T07:47:17;25.70;47.10
37868;DHT22;24011;48.880;9.190;2022-08-04T07:49:57;25.80;47.10
37868;DHT22;24011;48.880;9.190;2022-08-04T07:52:51;25.80;47.10
37868;DHT22;24011;48.880;9.190;2022-08-04T07:55:57;25.90;47.00
37868;DHT22;24011;48.880;9.190;2022-08-04T07:58:58;25.90;47.00
37868;DHT22;24011;48.880;9.190;2022-08-04T08:01:55;25.90;47.00
37868;DHT22;24011;48.880;9.190;2022-08-04T08:04:58;25.90;46.90
37868;DHT22;24011;48.880;9.190;2022-08-04T08:08:03;26.00;46.80
37868;DHT22;24011;48.880;9.190;2022-08-04T08:10:54;26.00;46.70
37868;DHT22;24011;48.880;9.190;2022-08-04T08:13:36;26.00;46.70
37868;DHT22;24011;48.880;9.190;2022-08-04T08:16:48;26.00;46.50
37868;DHT22;24011;48.880;9.190;2022-08-04T08:19:26;26.00;46.50
37868;DHT22;24011;48.880;9.190;2022-08-04T08:22:24;26.00;46.50
37868;DHT22;24011;48.880;9.190;2022-08-04T08:25:01;26.10;46.50
37868;DHT22;24011;48.880;9.190;2022-08-04T08:27:59;26.10;46.50
37868;DHT22;24011;48.880;9.190;2022-08-04T08:30:46;26.10;46.40
37868;DHT22;24011;48.880;9.190;2022-08-04T08:33:48;26.10;46.40
37868;DHT22;24011;48.880;9.190;2022-08-04T08:37:20;26.10;46.30
37868;DHT22;24011;48.880;9.190;2022-08-04T08:40:26;26.20;46.30
37868;DHT22;24011;48.880;9.190;2022-08-04T08:43:58;26.20;46.30
37868;DHT22;24011;48.880;9.190;2022-08-04T08:47:57;26.30;46.10
37868;DHT22;24011;48.880;9.190;2022-08-04T08:58:19;26.50;45.80
37868;DHT22;24011;48.880;9.190;2022-08-04T09:01:24;26.50;45.60
37868;DHT22;24011;48.880;9.190;2022-08-04T09:05:01;26.50;45.50
37868;DHT22;24011;48.880;9.190;2022-08-04T09:08:21;26.60;45.40
37868;DHT22;24011;48.880;9.190;2022-08-04T09:11:34;26.60;45.40
37868;DHT22;24011;48.880;9.190;2022-08-04T09:14:52;26.60;45.30
37868;DHT22;24011;48.880;9.190;2022-08-04T09:17:54;26.70;45.20
37868;DHT22;24011;48.880;9.190;2022-08-04T09:20:36;26.70;45.10
37868;DHT22;24011;48.880;9.190;2022-08-04T09:23:50;26.60;45.40
37868;DHT22;24011;48.880;9.190;2022-08-04T09:27:25;26.60;45.30
37868;DHT22;24011;48.880;9.190;2022-08-04T09:50:19;26.80;45.00
37868;DHT22;24011;48.880;9.190;2022-08-04T09:53:40;26.90;45.00
37868;DHT22;24011;48.880;9.190;2022-08-04T09:57:13;26.90;44.80
37868;DHT22;24011;48.880;9.190;2022-08-04T10:00:43;27.00;44.80
37868;DHT22;24011;48.880;9.190;2022-08-04T10:03:50;27.00;44.70
37868;DHT22;24011;48.880;9.190;2022-08-04T10:07:22;27.10;44.60
37868;DHT22;24011;48.880;9.190;2022-08-04T10:10:45;27.10;44.40
37868;DHT22;24011;48.880;9.190;2022-08-04T10:14:25;27.10;44.50
37868;DHT22;24011;48.880;9.190;2022-08-04T10:21:29;27.20;44.10
37868;DHT22;24011;48.880;9.190;2022-08-04T10:24:37;27.30;44.00
37868;DHT22;24011;48.880;9.190;2022-08-04T10:27:32;27.30;44.00
37868;DHT22;24011;48.880;9.190;2022-08-04T10:30:22;27.20;44.10
37868;DHT22;24011;48.880;9.190;2022-08-04T10:33:20;27.20;44.10
37868;DHT22;24011;48.880;9.190;2022-08-04T10:36:06;27.30;44.00
37868;DHT22;24011;48.880;9.190;2022-08-04T10:39:11;27.30;43.90
37868;DHT22;24011;48.880;9.190;2022-08-04T10:42:22;27.30;43.70
37868;DHT22;24011;48.880;9.190;2022-08-04T10:45:24;27.30;43.70
37868;DHT22;24011;48.880;9.190;2022-08-04T10:48:12;27.40;43.60
37868;DHT22;24011;48.880;9.190;2022-08-04T10:51:17;27.40;43.60
37868;DHT22;24011;48.880;9.190;2022-08-04T10:57:43;27.50;43.50
37868;DHT22;24011;48.880;9.190;2022-08-04T11:00:38;27.50;43.40
37868;DHT22;24011;48.880;9.190;2022-08-04T11:04:11;27.50;43.30
37868;DHT22;24011;48.880;9.190;2022-08-04T11:07:04;27.50;43.30
37868;DHT22;24011;48.880;9.190;2022-08-04T11:10:12;27.50;43.30
37868;DHT22;24011;48.880;9.190;2022-08-04T11:13:07;27.50;43.30
37868;DHT22;24011;48.880;9.190;2022-08-04T11:16:04;27.50;43.20
37868;DHT22;24011;48.880;9.190;2022-08-04T11:19:16;27.50;43.20
37868;DHT22;24011;48.880;9.190;2022-08-04T11:25:48;27.50;43.00
37868;DHT22;24011;48.880;9.190;2022-08-04T11:29:00;27.50;42.90
37868;DHT22;24011;48.880;9.190;2022-08-04T11:32:16;27.60;42.90
37868;DHT22;24011;48.880;9.190;2022-08-04T11:35:23;27.60;42.90
37868;DHT22;24011;48.880;9.190;2022-08-04T11:38:35;27.60;42.70
37868;DHT22;24011;48.880;9.190;2022-08-04T11:41:47;27.50;42.70
37868;DHT22;24011;48.880;9.190;2022-08-04T11:44:49;27.40;42.90
37868;DHT22;24011;48.880;9.190;2022-08-04T11:47:47;27.40;43.10
37868;DHT22;24011;48.880;9.190;2022-08-04T11:50:42;27.40;43.10
37868;DHT22;24011;48.880;9.190;2022-08-04T11:53:23;27.40;43.10
37868;DHT22;24011;48.880;9.190;2022-08-04T11:56:12;27.40;43.00
37868;DHT22;24011;48.880;9.190;2022-08-04T11:59:15;27.40;42.80
37868;DHT22;24011;48.880;9.190;2022-08-04T12:05:08;27.40;42.60
37868;DHT22;24011;48.880;9.190;2022-08-04T12:08:18;27.40;42.60
37868;DHT22;24011;48.880;9.190;2022-08-04T12:11:11;27.40;42.70
37868;DHT22;24011;48.880;9.190;2022-08-04T12:14:13;27.30;43.00
37868;DHT22;24011;48.880;9.190;2022-08-04T12:17:11;27.40;42.90
37868;DHT22;24011;48.880;9.190;2022-08-04T12:20:36;27.30;42.80
37868;DHT22;24011;48.880;9.190;2022-08-04T12:23:28;27.40;42.70
37868;DHT22;24011;48.880;9.190;2022-08-04T12:26:43;27.40;42.60
37868;DHT22;24011;48.880;9.190;2022-08-04T12:29:40;27.40;42.60
37868;DHT22;24011;48.880;9.190;2022-08-04T12:32:47;27.30;42.60
37868;DHT22;24011;48.880;9.190;2022-08-04T12:35:46;27.30;42.60
37868;DHT22;24011;48.880;9.190;2022-08-04T12:38:43;27.30;42.60
37868;DHT22;24011;48.880;9.190;2022-08-04T12:41:23;27.30;42.70
37868;DHT22;24011;48.880;9.190;2022-08-04T12:44:13;27.20;42.70
37868;DHT22;24011;48.880;9.190;2022-08-04T12:47:16;27.20;43.30
37868;DHT22;24011;48.880;9.190;2022-08-04T12:50:17;27.20;42.70
37868;DHT22;24011;48.880;9.190;2022-08-04T12:53:17;27.20;42.80
37868;DHT22;24011;48.880;9.190;2022-08-04T12:56:29;27.20;42.80
37868;DHT22;24011;48.880;9.190;2022-08-04T12:59:17;27.10;42.90
37868;DHT22;24011;48.880;9.190;2022-08-04T13:02:05;27.10;42.80
37868;DHT22;24011;48.880;9.190;2022-08-04T13:05:04;27.10;42.90
37868;DHT22;24011;48.880;9.190;2022-08-04T13:08:01;27.10;43.00
37868;DHT22;24011;48.880;9.190;2022-08-04T13:10:59;27.10;43.00
37868;DHT22;24011;48.880;9.190;2022-08-04T13:13:55;27.00;43.00
37868;DHT22;24011;48.880;9.190;2022-08-04T13:16:59;27.00;43.10
37868;DHT22;24011;48.880;9.190;2022-08-04T13:19:49;27.00;43.10
37868;DHT22;24011;48.880;9.190;2022-08-04T13:22:41;27.00;43.10
37868;DHT22;24011;48.880;9.190;2022-08-04T13:25:27;27.00;43.10
37868;DHT22;24011;48.880;9.190;2022-08-04T13:28:29;27.00;43.10
37868;DHT22;24011;48.880;9.190;2022-08-04T13:31:31;27.00;43.20
37868;DHT22;24011;48.880;9.190;2022-08-04T13:34:29;26.90;43.30
37868;DHT22;24011;48.880;9.190;2022-08-04T13:37:29;26.90;43.30
37868;DHT22;24011;48.880;9.190;2022-08-04T13:40:24;26.90;43.30
37868;DHT22;24011;48.880;9.190;2022-08-04T13:43:30;26.90;43.30
37868;DHT22;24011;48.880;9.190;2022-08-04T13:46:49;26.90;43.20
37868;DHT22;24011;48.880;9.190;2022-08-04T13:50:07;26.90;43.20
37868;DHT22;24011;48.880;9.190;2022-08-04T13:53:05;26.90;43.20
37868;DHT22;24011;48.880;9.190;2022-08-04T13:56:06;26.90;43.20
37868;DHT22;24011;48.880;9.190;2022-08-04T13:59:07;26.90;43.10
37868;DHT22;24011;48.880;9.190;2022-08-04T14:01:55;26.90;43.10
37868;DHT22;24011;48.880;9.190;2022-08-04T14:04:50;26.90;43.10
37868;DHT22;24011;48.880;9.190;2022-08-04T14:07:52;26.90;43.00
37868;DHT22;24011;48.880;9.190;2022-08-04T14:10:52;26.90;43.00
37868;DHT22;24011;48.880;9.190;2022-08-04T14:13:47;26.90;42.90
37868;DHT22;24011;48.880;9.190;2022-08-04T14:17:00;26.90;43.00
37868;DHT22;24011;48.880;9.190;2022-08-04T14:19:50;26.90;42.90
37868;DHT22;24011;48.880;9.190;2022-08-04T14:22:54;26.90;42.90
37868;DHT22;24011;48.880;9.190;2022-08-04T14:26:42;27.00;42.70
37868;DHT22;24011;48.880;9.190;2022-08-04T14:30:12;27.00;42.70
37868;DHT22;24011;48.880;9.190;2022-08-04T14:33:10;27.00;42.70
37868;DHT22;24011;48.880;9.190;2022-08-04T14:36:45;27.00;42.70
37868;DHT22;24011;48.880;9.190;2022-08-04T14:39:54;26.90;42.80
37868;DHT22;24011;48.880;9.190;2022-08-04T14:43:24;26.90;42.90
37868;DHT22;24011;48.880;9.190;2022-08-04T14:47:06;26.90;42.90
37868;DHT22;24011;48.880;9.190;2022-08-04T14:54:25;26.80;42.90
37868;DHT22;24011;48.880;9.190;2022-08-04T14:57:36;26.80;43.00
37868;DHT22;24011;48.880;9.190;2022-08-04T15:00:57;26.80;43.00
37868;DHT22;24011;48.880;9.190;2022-08-04T15:04:18;26.80;42.90
37868;DHT22;24011;48.880;9.190;2022-08-04T15:07:36;26.80;42.90
37868;DHT22;24011;48.880;9.190;2022-08-04T15:11:00;26.80;43.00
37868;DHT22;24011;48.880;9.190;2022-08-04T15:13:54;26.80;42.90
37868;DHT22;24011;48.880;9.190;2022-08-04T15:17:12;26.80;43.00
37868;DHT22;24011;48.880;9.190;2022-08-04T15:20:30;26.70;43.00
37868;DHT22;24011;48.880;9.190;2022-08-04T15:23:26;26.80;43.10
37868;DHT22;24011;48.880;9.190;2022-08-04T15:26:38;26.70;43.10
37868;DHT22;24011;48.880;9.190;2022-08-04T15:29:43;26.70;43.20
37868;DHT22;24011;48.880;9.190;2022-08-04T15:32:46;26.70;43.10
37868;DHT22;24011;48.880;9.190;2022-08-04T15:35:45;26.70;43.00
37868;DHT22;24011;48.880;9.190;2022-08-04T15:38:34;26.70;43.00
37868;DHT22;24011;48.880;9.190;2022-08-04T15:41:40;26.70;43.00
37868;DHT22;24011;48.880;9.190;2022-08-04T15:51:09;26.70;43.10
37868;DHT22;24011;48.880;9.190;2022-08-04T16:01:21;26.60;43.10
37868;DHT22;24011;48.880;9.190;2022-08-04T16:04:38;26.60;43.20
37868;DHT22;24011;48.880;9.190;2022-08-04T16:11:39;26.60;43.20
37868;DHT22;24011;48.880;9.190;2022-08-04T16:14:56;26.50;43.10
37868;DHT22;24011;48.880;9.190;2022-08-04T16:18:44;26.60;43.20
37868;DHT22;24011;48.880;9.190;2022-08-04T16:22:03;26.60;43.20
37868;DHT22;24011;48.880;9.190;2022-08-04T16:28:56;26.70;42.90
37868;DHT22;24011;48.880;9.190;2022-08-04T16:32:15;26.70;43.00
37868;DHT22;24011;48.880;9.190;2022-08-04T16:35:51;26.70;43.00
37868;DHT22;24011;48.880;9.190;2022-08-04T16:39:03;26.60;43.00
37868;DHT22;24011;48.880;9.190;2022-08-04T16:42:44;26.60;43.20
37868;DHT22;24011;48.880;9.190;2022-08-04T16:46:03;26.60;43.20
37868;DHT22;24011;48.880;9.190;2022-08-04T16:49:51;26.60;43.30
37868;DHT22;24011;48.880;9.190;2022-08-04T16:53:27;26.50;43.30
37868;DHT22;24011;48.880;9.190;2022-08-04T16:56:51;26.50;43.40
37868;DHT22;24011;48.880;9.190;2022-08-04T16:59:51;26.50;43.40
37868;DHT22;24011;48.880;9.190;2022-08-04T17:02:57;26.50;43.60
37868;DHT22;24011;48.880;9.190;2022-08-04T17:09:15;26.50;43.60
37868;DHT22;24011;48.880;9.190;2022-08-04T17:12:26;26.40;43.80
37868;DHT22;24011;48.880;9.190;2022-08-04T17:15:51;26.40;43.80
37868;DHT22;24011;48.880;9.190;2022-08-04T17:18:51;26.40;43.80
37868;DHT22;24011;48.880;9.190;2022-08-04T17:22:04;26.50;43.80
37868;DHT22;24011;48.880;9.190;2022-08-04T17:25:20;26.50;43.60
37868;DHT22;24011;48.880;9.190;2022-08-04T17:28:40;26.60;43.40
37868;DHT22;24011;48.880;9.190;2022-08-04T17:31:45;26.50;43.40
37868;DHT22;24011;48.880;9.190;2022-08-04T17:34:52;26.50;43.40
37868;DHT22;24011;48.880;9.190;2022-08-04T17:38:15;26.50;43.40
37868;DHT22;24011;48.880;9.190;2022-08-04T17:41:27;26.50;43.50
37868;DHT22;24011;48.880;9.190;2022-08-04T17:44:39;26.50;43.50
37868;DHT22;24011;48.880;9.190;2022-08-04T17:48:13;26.50;43.70
37868;DHT22;24011;48.880;9.190;2022-08-04T17:51:15;26.50;44.50
37868;DHT22;24011;48.880;9.190;2022-08-04T17:54:34;26.40;43.90
37868;DHT22;24011;48.880;9.190;2022-08-04T17:57:45;26.40;43.80
37868;DHT22;24011;48.880;9.190;2022-08-04T18:00:57;26.40;44.00
37868;DHT22;24011;48.880;9.190;2022-08-04T18:07:34;26.50;43.90
37868;DHT22;24011;48.880;9.190;2022-08-04T18:10:58;26.50;43.70
37868;DHT22;24011;48.880;9.190;2022-08-04T18:14:21;26.60;43.70
37868;DHT22;24011;48.880;9.190;2022-08-04T18:17:34;26.60;44.30
37868;DHT22;24011;48.880;9.190;2022-08-04T18:20:51;26.60;43.50
37868;DHT22;24011;48.880;9.190;2022-08-04T18:23:58;26.60;43.50
37868;DHT22;24011;48.880;9.190;2022-08-04T18:27:16;26.70;43.50
37868;DHT22;24011;48.880;9.190;2022-08-04T18:30:34;26.70;43.50
37868;DHT22;24011;48.880;9.190;2022-08-04T18:33:40;26.70;43.50
37868;DHT22;24011;48.880;9.190;2022-08-04T18:36:40;26.70;43.40
37868;DHT22;24011;48.880;9.190;2022-08-04T18:39:58;26.70;43.40
37868;DHT22;24011;48.880;9.190;2022-08-04T18:43:28;26.80;43.50
37868;DHT22;24011;48.880;9.190;2022-08-04T18:46:40;26.80;43.40
37868;DHT22;24011;48.880;9.190;2022-08-04T18:50:04;26.80;43.40
37868;DHT22;24011;48.880;9.190;2022-08-04T18:53:27;26.80;43.40
37868;DHT22;24011;48.880;9.190;2022-08-04T18:57:03;26.80;43.40
37868;DHT22;24011;48.880;9.190;2022-08-04T19:00:45;26.80;43.40
37868;DHT22;24011;48.880;9.190;2022-08-04T19:04:52;26.80;43.30
37868;DHT22;24011;48.880;9.190;2022-08-04T19:08:45;26.90;43.40
37868;DHT22;24011;48.880;9.190;2022-08-04T19:12:28;26.90;43.40
37868;DHT22;24011;48.880;9.190;2022-08-04T19:16:09;26.90;43.40
37868;DHT22;24011;48.880;9.190;2022-08-04T19:20:04;26.90;43.40
37868;DHT22;24011;48.880;9.190;2022-08-04T19:23:57;26.90;43.30
37868;DHT22;24011;48.880;9.190;2022-08-04T19:27:57;26.90;43.30
37868;DHT22;24011;48.880;9.190;2022-08-04T19:31:40;26.90;43.30
37868;DHT22;24011;48.880;9.190;2022-08-04T19:54:04;27.00;43.20
37868;DHT22;24011;48.880;9.190;2022-08-04T19:57:42;27.00;43.20
37868;DHT22;24011;48.880;9.190;2022-08-04T20:01:06;27.00;43.20
37868;DHT22;24011;48.880;9.190;2022-08-04T20:04:28;27.00;43.20
37868;DHT22;24011;48.880;9.190;2022-08-04T20:07:46;27.00;43.20
37868;DHT22;24011;48.880;9.190;2022-08-04T20:11:18;27.00;43.20
37868;DHT22;24011;48.880;9.190;2022-08-04T20:14:34;27.00;43.20
37868;DHT22;24011;48.880;9.190;2022-08-04T20:17:58;27.00;43.10
37868;DHT22;24011;48.880;9.190;2022-08-04T20:21:34;27.10;43.10
37868;DHT22;24011;48.880;9.190;2022-08-04T20:25:12;27.10;43.10
37868;DHT22;24011;48.880;9.190;2022-08-04T20:28:36;27.10;43.10
37868;DHT22;24011;48.880;9.190;2022-08-04T20:32:25;27.10;43.10
37868;DHT22;24011;48.880;9.190;2022-08-04T20:35:40;27.10;43.10
37868;DHT22;24011;48.880;9.190;2022-08-04T20:39:01;27.10;43.00
37868;DHT22;24011;48.880;9.190;2022-08-04T20:42:16;27.10;43.00
37868;DHT22;24011;48.880;9.190;2022-08-04T20:45:49;27.10;43.10
37868;DHT22;24011;48.880;9.190;2022-08-04T20:49:10;27.10;43.10
37868;DHT22;24011;48.880;9.190;2022-08-04T20:52:31;27.10;43.00
37868;DHT22;24011;48.880;9.190;2022-08-04T20:56:07;27.10;43.00
37868;DHT22;24011;48.880;9.190;2022-08-04T21:00:13;27.10;43.10
37868;DHT22;24011;48.880;9.190;2022-08-04T21:26:31;27.10;43.00
37868;DHT22;24011;48.880;9.190;2022-08-04T21:30:25;27.10;43.10
37868;DHT22;24011;48.880;9.190;2022-08-04T21:34:19;27.20;43.10
37868;DHT22;24011;48.880;9.190;2022-08-04T21:38:31;27.20;43.10
37868;DHT22;24011;48.880;9.190;2022-08-04T21:53:43;27.10;43.10
37868;DHT22;24011;48.880;9.190;2022-08-04T21:57:01;27.10;43.10
37868;DHT22;24011;48.880;9.190;2022-08-04T22:00:19;27.10;43.10
37868;DHT22;24011;48.880;9.190;2022-08-04T22:03:37;27.10;43.10
37868;DHT22;24011;48.880;9.190;2022-08-04T22:06:57;27.10;43.10
37868;DHT22;24011;48.880;9.190;2022-08-04T22:10:37;27.10;43.10
37868;DHT22;24011;48.880;9.190;2022-08-04T22:13:58;27.10;43.10
37868;DHT22;24011;48.880;9.190;2022-08-04T22:17:15;27.10;43.10
37868;DHT22;24011;48.880;9.190;2022-08-04T22:20:39;27.10;43.10
37868;DHT22;24011;48.880;9.190;2022-08-04T22:23:56;27.10;43.10
37868;DHT22;24011;48.880;9.190;2022-08-04T22:27:26;27.10;43.10
37868;DHT22;24011;48.880;9.190;2022-08-04T22:30:44;27.10;43.70
37868;DHT22;24011;48.880;9.190;2022-08-04T22:34:08;27.10;43.10
37868;DHT22;24011;48.880;9.190;2022-08-04T22:37:27;27.10;43.10
37868;DHT22;24011;48.880;9.190;2022-08-04T22:41:16;27.10;43.10
37868;DHT22;24011;48.880;9.190;2022-08-04T22:44:51;27.10;43.10
37868;DHT22;24011;48.880;9.190;2022-08-04T22:48:28;27.10;43.10
37868;DHT22;24011;48.880;9.190;2022-08-04T22:51:44;27.10;43.10
37868;DHT22;24011;48.880;9.190;2022-08-04T22:55:14;27.10;43.20
37868;DHT22;24011;48.880;9.190;2022-08-04T22:58:50;27.10;43.20
37868;DHT22;24011;48.880;9.190;2022-08-04T23:02:10;27.10;43.20
37868;DHT22;24011;48.880;9.190;2022-08-04T23:05:06;27.10;43.20
37868;DHT22;24011;48.880;9.190;2022-08-04T23:08:14;27.10;43.20
37868;DHT22;24011;48.880;9.190;2022-08-04T23:11:12;27.10;43.20
37868;DHT22;24011;48.880;9.190;2022-08-04T23:14:20;27.10;43.20
37868;DHT22;24011;48.880;9.190;2022-08-04T23:17:26;27.10;43.20
37868;DHT22;24011;48.880;9.190;2022-08-04T23:20:30;27.10;43.20
37868;DHT22;24011;48.880;9.190;2022-08-04T23:23:28;27.10;43.20
37868;DHT22;24011;48.880;9.190;2022-08-04T23:26:40;27.10;43.80
37868;DHT22;24011;48.880;9.190;2022-08-04T23:29:36;27.10;43.20
37868;DHT22;24011;48.880;9.190;2022-08-04T23:32:52;27.10;43.20
37868;DHT22;24011;48.880;9.190;2022-08-04T23:35:50;27.10;43.20
37868;DHT22;24011;48.880;9.190;2022-08-04T23:38:52;27.10;43.20
37868;DHT22;24011;48.880;9.190;2022-08-04T23:41:48;27.10;43.20
37868;DHT22;24011;48.880;9.190;2022-08-04T23:44:58;27.10;43.20
37868;DHT22;24011;48.880;9.190;2022-08-04T23:48:22;27.10;43.20
37868;DHT22;24011;48.880;9.190;2022-08-04T23:51:30;27.10;43.20
37868;DHT22;24011;48.880;9.190;2022-08-04T23:54:28;27.10;43.20
37868;DHT22;24011;48.880;9.190;2022-08-04T23:57:34;27.10;43.30
